< Typhoon 195829 1958 Season Typhoon 195831 >
Typhoon 195830 (OLGA)
General InformationTrack Information on Google Maps || Disaster Info.ResourceGoogle EarthGE AnimationAtom FeedGeoJSON
Detalied Best Track (Time Zone = UTC)
Year Month Day Hour Lat. Long. Pressure (hPa) Wind (kt) Class Image Chart
1958 12 1 06 5.0 170.0 998 0 9 -- Chart
1958 12 1 12 6.0 168.6 998 0 9 -- Chart
1958 12 1 18 7.0 167.0 994 0 9 -- Chart
1958 12 2 00 8.2 165.2 998 0 9 -- Chart
1958 12 2 06 9.5 163.4 994 0 9 -- Chart
1958 12 2 12 10.2 161.7 994 0 9 -- Chart
1958 12 2 18 11.0 160.0 994 0 9 -- Chart
1958 12 3 00 12.0 158.3 990 0 9 -- Chart
1958 12 3 06 13.2 156.3 990 0 9 -- Chart
1958 12 3 12 14.0 154.0 990 0 9 -- Chart
1958 12 3 18 14.6 152.2 985 0 9 -- Chart
1958 12 4 00 15.8 149.7 980 0 9 -- Chart
1958 12 4 06 16.5 147.4 965 0 9 -- Chart
1958 12 4 12 17.0 146.0 965 0 9 -- Chart
1958 12 4 18 17.6 144.5 960 0 9 -- Chart
1958 12 5 00 18.5 143.2 955 0 9 -- Chart
1958 12 5 06 19.3 142.5 950 0 9 -- Chart
1958 12 5 12 20.2 141.7 950 0 9 -- Chart
1958 12 5 18 21.3 142.0 950 0 9 -- Chart
1958 12 6 00 22.4 142.9 950 0 9 -- Chart
1958 12 6 06 23.0 144.0 950 0 9 -- Chart
1958 12 6 12 24.0 146.0 960 0 9 -- Chart
1958 12 6 18 24.5 148.2 965 0 9 -- Chart
1958 12 7 00 24.6 150.7 970 0 9 -- Chart
1958 12 7 06 24.7 153.3 985 0 9 -- Chart
1958 12 7 12 24.7 155.8 990 0 9 -- Chart
1958 12 7 18 24.9 158.3 995 0 9 -- Chart
1958 12 8 00 25.3 160.3 1000 0 9 -- Chart
1958 12 8 06 25.6 163.0 1002 0 9 -- Chart
1958 12 8 12 26.0 165.6 1002 0 9 -- Chart
1958 12 8 18 27.0 168.0 1010 0 6 -- Chart
1958 12 9 00 27.1 169.2 1012 0 6 -- Chart
1958 12 9 06 27.2 171.0 1012 0 6 -- Chart
1958 12 9 12 27.2 172.0 1014 0 6 -- Chart
Japan Meteorological Agency Best Track Data | Correction Date : 1989-06-01
< Typhoon 195829 1958 Season Typhoon 195831 >

Help